Time;durP1;ratioP1;P1;durP2;ratioP2;P2;SDS_P1;SDS_P2;PMS_P1;PMS_P2;Temp;Humidity;BMP_temperature;BMP_pressure;BME280_temperature;BME280_humidity;BME280_pressure;Samples;Min_cycle;Max_cycle;Signal;HPM_P1;HPM_P2
2021/12/03 00:02:24;;;;;;;1.05;0.57;;;1.70;99.90;;;;;;4987446;28;20132;-92
2021/12/03 00:04:50;;;;;;;3.30;1.00;;;1.00;99.90;;;;;;4988904;28;20398;-89
2021/12/03 00:07:17;;;;;;;6.13;0.82;;;1.10;99.90;;;;;;4987425;28;20066;-86
2021/12/03 00:09:42;;;;;;;3.13;1.08;;;1.10;99.90;;;;;;4997102;28;20046;-91
2021/12/03 00:12:08;;;;;;;5.05;0.85;;;1.00;99.90;;;;;;4989862;28;20034;-82
2021/12/03 00:14:35;;;;;;;2.75;0.75;;;1.10;99.90;;;;;;4973772;28;20486;-91
2021/12/03 00:17:02;;;;;;;2.22;0.73;;;1.10;99.90;;;;;;4983216;28;20038;-89
2021/12/03 00:19:28;;;;;;;3.67;1.10;;;0.80;99.90;;;;;;4990909;28;20053;-81
2021/12/03 00:21:54;;;;;;;5.30;1.15;;;1.00;99.90;;;;;;4991640;28;20092;-85
2021/12/03 00:24:20;;;;;;;3.03;0.90;;;1.00;99.90;;;;;;4986990;28;20042;-92
2021/12/03 00:26:46;;;;;;;3.42;0.80;;;1.00;99.90;;;;;;4990146;28;20038;-83
2021/12/03 00:29:12;;;;;;;2.28;0.85;;;1.00;99.90;;;;;;4989909;28;20490;-84
2021/12/03 00:31:41;;;;;;;13.25;1.02;;;1.00;99.90;;;;;;4975546;28;20043;-92
2021/12/03 00:34:10;;;;;;;5.15;1.23;;;1.00;99.90;;;;;;4982714;28;20059;-92
2021/12/03 00:36:36;;;;;;;5.07;1.10;;;1.00;99.90;;;;;;4982754;28;20458;-89
2021/12/03 00:39:03;;;;;;;3.60;0.88;;;0.90;99.90;;;;;;4988643;28;20057;-78
2021/12/03 00:41:32;;;;;;;3.80;1.20;;;0.90;99.90;;;;;;4986779;28;20079;-90
2021/12/03 00:43:58;;;;;;;3.28;0.98;;;0.90;99.90;;;;;;4989336;28;20039;-81
2021/12/03 00:46:23;;;;;;;3.47;0.95;;;1.00;99.90;;;;;;4990037;28;20384;-82
2021/12/03 00:48:52;;;;;;;8.80;0.80;;;1.00;99.90;;;;;;4985787;28;20120;-90
2021/12/03 00:51:19;;;;;;;5.20;0.90;;;1.10;99.90;;;;;;4988414;28;20035;-91
2021/12/03 00:53:46;;;;;;;3.10;0.85;;;1.00;99.90;;;;;;4989961;28;20043;-92
2021/12/03 00:56:12;;;;;;;4.18;1.33;;;1.40;99.90;;;;;;4989279;28;20042;-88
2021/12/03 00:58:39;;;;;;;6.97;0.80;;;1.50;99.90;;;;;;4990210;28;20054;-77
2021/12/03 01:01:05;;;;;;;9.52;1.10;;;1.00;99.90;;;;;;4988693;28;20047;-90
2021/12/03 01:03:31;;;;;;;3.17;0.80;;;1.40;99.90;;;;;;4985917;28;20078;-90
2021/12/03 01:05:57;;;;;;;1.65;0.63;;;1.50;99.90;;;;;;4982370;28;20073;-83
2021/12/03 01:08:23;;;;;;;4.15;0.50;;;1.40;99.90;;;;;;4989394;28;20034;-91
2021/12/03 01:10:49;;;;;;;3.35;0.70;;;1.30;99.90;;;;;;4988515;28;20042;-92
2021/12/03 01:13:16;;;;;;;6.05;0.70;;;1.00;99.90;;;;;;4988754;28;20042;-88
2021/12/03 01:15:42;;;;;;;8.80;1.20;;;1.00;99.90;;;;;;4985621;28;20054;-91
2021/12/03 01:18:09;;;;;;;4.75;0.75;;;1.00;99.90;;;;;;4984134;28;20402;-91
2021/12/03 01:20:36;;;;;;;3.83;0.88;;;1.00;99.90;;;;;;4987608;28;20043;-90
2021/12/03 01:23:03;;;;;;;1.67;0.65;;;0.90;99.90;;;;;;4990087;28;20081;-78
2021/12/03 01:25:30;;;;;;;3.97;0.88;;;1.00;99.90;;;;;;4988461;28;20136;-92
2021/12/03 01:27:58;;;;;;;4.65;0.95;;;1.30;99.90;;;;;;4984643;28;20053;-90
2021/12/03 01:30:24;;;;;;;4.85;0.77;;;1.00;99.90;;;;;;4982432;28;20057;-91
2021/12/03 01:32:50;;;;;;;2.65;1.10;;;0.80;99.90;;;;;;4989834;28;20038;-92
2021/12/03 01:35:17;;;;;;;5.45;0.85;;;1.00;99.90;;;;;;4989117;28;20090;-92
2021/12/03 01:37:43;;;;;;;3.42;0.65;;;1.00;99.90;;;;;;4985049;28;20074;-91
2021/12/03 01:40:12;;;;;;;1.73;1.00;;;1.00;99.90;;;;;;4988077;28;20050;-91
2021/12/03 01:42:39;;;;;;;3.65;0.73;;;1.10;99.90;;;;;;4985518;28;20038;-89
2021/12/03 01:45:08;;;;;;;3.97;0.63;;;1.10;99.90;;;;;;4983985;28;20553;-90
2021/12/03 01:47:35;;;;;;;5.63;1.10;;;1.10;99.90;;;;;;4989394;28;20050;-91
2021/12/03 01:50:01;;;;;;;3.97;0.80;;;1.10;99.90;;;;;;4986864;28;20414;-91
2021/12/03 01:52:26;;;;;;;7.05;0.90;;;1.70;99.90;;;;;;4982903;28;20430;-91
2021/12/03 01:54:53;;;;;;;4.07;0.90;;;1.30;99.90;;;;;;4981573;28;20047;-91
2021/12/03 01:57:19;;;;;;;3.65;1.08;;;1.10;99.90;;;;;;4985404;28;20050;-87
2021/12/03 01:59:45;;;;;;;3.95;0.85;;;1.10;99.90;;;;;;4983237;28;20074;-89
2021/12/03 02:02:11;;;;;;;6.18;0.90;;;1.10;99.90;;;;;;4990420;28;20073;-89
2021/12/03 02:04:36;;;;;;;4.80;1.38;;;1.30;99.90;;;;;;4988190;28;20088;-89
2021/12/03 02:07:02;;;;;;;3.90;1.05;;;1.20;99.90;;;;;;4989346;28;20573;-85
2021/12/03 02:09:28;;;;;;;4.10;0.95;;;2.10;99.90;;;;;;4992816;28;20046;-92
2021/12/03 02:11:54;;;;;;;3.45;0.95;;;1.10;99.90;;;;;;4985505;28;20065;-82
2021/12/03 02:14:21;;;;;;;5.45;2.45;;;1.10;99.90;;;;;;4978669;28;20498;-90
2021/12/03 02:16:47;;;;;;;4.57;1.70;;;1.50;99.90;;;;;;4991519;28;20089;-91
2021/12/03 02:19:13;;;;;;;3.08;0.65;;;1.10;99.90;;;;;;4988388;28;20043;-87
2021/12/03 02:21:39;;;;;;;5.70;0.98;;;1.20;99.90;;;;;;4985245;28;20039;-91
2021/12/03 02:24:05;;;;;;;7.47;1.02;;;1.70;99.90;;;;;;4988145;28;20049;-90
2021/12/03 02:26:31;;;;;;;1.80;0.95;;;1.20;99.90;;;;;;4988292;28;20197;-81
2021/12/03 02:28:57;;;;;;;5.78;1.15;;;2.10;99.90;;;;;;4988766;28;20561;-88
2021/12/03 02:31:24;;;;;;;3.97;1.58;;;1.20;99.90;;;;;;4981947;28;20125;-89
2021/12/03 02:33:51;;;;;;;4.55;1.13;;;1.20;99.90;;;;;;4988354;28;20045;-79
2021/12/03 02:36:17;;;;;;;9.45;1.70;;;1.20;99.90;;;;;;4979355;28;20046;-83
2021/12/03 02:38:44;;;;;;;7.03;1.92;;;1.30;99.90;;;;;;4989625;28;20133;-92
2021/12/03 02:41:10;;;;;;;5.78;2.30;;;1.50;99.90;;;;;;4989000;28;20347;-86
2021/12/03 02:43:35;;;;;;;4.10;1.80;;;1.30;99.90;;;;;;4987204;28;20146;-92
2021/12/03 02:46:01;;;;;;;11.35;2.92;;;1.30;99.90;;;;;;4990524;28;20410;-83
2021/12/03 02:48:28;;;;;;;8.85;2.90;;;1.30;99.90;;;;;;4989781;28;20068;-86
2021/12/03 02:50:55;;;;;;;6.03;2.78;;;1.40;99.90;;;;;;4993408;28;20042;-87
2021/12/03 02:53:22;;;;;;;6.47;3.08;;;1.30;99.90;;;;;;4994277;28;20101;-90
2021/12/03 02:55:47;;;;;;;7.82;2.90;;;1.30;99.90;;;;;;4991335;28;20092;-91
2021/12/03 02:58:14;;;;;;;8.07;4.00;;;1.40;99.90;;;;;;4982658;28;20511;-90
2021/12/03 03:00:41;;;;;;;6.65;2.97;;;1.40;99.90;;;;;;4989826;28;20052;-92
2021/12/03 03:03:07;;;;;;;8.77;3.70;;;3.30;99.90;;;;;;4986992;28;20093;-86
2021/12/03 03:05:32;;;;;;;10.50;4.07;;;1.40;99.90;;;;;;4989612;28;20042;-89
2021/12/03 03:07:59;;;;;;;13.30;4.57;;;1.50;99.90;;;;;;5005169;28;20054;-91
2021/12/03 03:10:30;;;;;;;9.38;5.10;;;1.40;99.90;;;;;;4988669;28;20062;-89
2021/12/03 03:12:57;;;;;;;12.27;5.32;;;1.00;99.90;;;;;;4983655;28;20068;-87
2021/12/03 03:15:23;;;;;;;10.45;6.30;;;1.40;99.90;;;;;;4984908;28;20125;-85
2021/12/03 03:17:49;;;;;;;11.25;7.20;;;1.40;99.90;;;;;;4985585;28;20045;-85
2021/12/03 03:20:17;;;;;;;16.95;8.13;;;1.20;99.90;;;;;;4991164;28;20486;-92
2021/12/03 03:22:43;;;;;;;14.35;9.05;;;1.40;99.90;;;;;;4985378;28;20564;-83
2021/12/03 03:25:13;;;;;;;18.30;11.60;;;1.30;99.90;;;;;;4990349;28;20041;-91
2021/12/03 03:27:39;;;;;;;16.15;11.02;;;1.40;99.90;;;;;;4982712;28;20089;-85
2021/12/03 03:30:09;;;;;;;16.70;11.05;;;1.40;99.90;;;;;;4990443;28;20386;-89
2021/12/03 03:32:35;;;;;;;15.80;11.32;;;1.50;99.90;;;;;;4969437;28;20077;-89
2021/12/03 03:35:01;;;;;;;17.67;13.50;;;1.00;99.90;;;;;;4975356;28;20483;-86
2021/12/03 03:37:27;;;;;;;18.35;12.00;;;2.10;99.90;;;;;;4988383;28;20053;-88
2021/12/03 03:39:52;;;;;;;20.77;14.43;;;1.50;99.90;;;;;;4990658;28;20050;-81
2021/12/03 03:42:18;;;;;;;19.33;12.85;;;1.60;99.90;;;;;;4986667;28;20042;-87
2021/12/03 03:44:44;;;;;;;23.95;12.95;;;1.50;99.90;;;;;;4984828;28;20043;-87
2021/12/03 03:47:10;;;;;;;26.35;14.02;;;1.60;99.90;;;;;;4984587;28;20057;-82
2021/12/03 03:49:37;;;;;;;23.88;15.50;;;1.40;99.90;;;;;;4987176;28;20058;-92
2021/12/03 03:52:06;;;;;;;17.13;13.35;;;1.60;99.90;;;;;;4992036;28;20034;-81
2021/12/03 03:54:33;;;;;;;20.65;14.25;;;1.60;99.90;;;;;;4993036;28;20058;-85
2021/12/03 03:56:59;;;;;;;17.13;13.57;;;1.50;99.90;;;;;;4989201;28;20042;-83
2021/12/03 03:59:25;;;;;;;19.63;14.27;;;1.50;99.90;;;;;;4982860;28;20055;-86
2021/12/03 04:01:51;;;;;;;20.30;15.07;;;1.50;99.90;;;;;;4979310;28;20041;-85
2021/12/03 04:04:17;;;;;;;16.70;12.95;;;1.50;99.90;;;;;;4991318;28;20034;-79
2021/12/03 04:06:43;;;;;;;18.55;14.05;;;1.50;99.90;;;;;;4991799;28;20077;-86
2021/12/03 04:09:10;;;;;;;18.00;13.75;;;1.50;99.90;;;;;;4974450;28;20096;-89
2021/12/03 04:11:37;;;;;;;15.88;12.93;;;1.50;99.90;;;;;;4986134;28;20054;-87
2021/12/03 04:14:03;;;;;;;18.58;12.40;;;1.50;99.90;;;;;;4981888;28;20046;-88
2021/12/03 04:16:30;;;;;;;15.90;12.15;;;1.60;99.90;;;;;;4988632;28;20132;-89
2021/12/03 04:18:57;;;;;;;17.40;12.48;;;1.40;99.90;;;;;;4980026;28;20523;-86
2021/12/03 04:21:23;;;;;;;18.88;12.18;;;1.50;99.90;;;;;;4986182;28;20085;-84
2021/12/03 04:23:48;;;;;;;16.75;11.23;;;1.40;99.90;;;;;;4988331;28;20026;-88
2021/12/03 04:26:14;;;;;;;18.80;11.90;;;1.50;99.90;;;;;;4984828;28;20502;-92
2021/12/03 04:28:41;;;;;;;19.73;12.43;;;1.50;99.90;;;;;;4990812;28;20034;-85
2021/12/03 04:31:07;;;;;;;16.77;11.90;;;1.40;99.90;;;;;;4988002;28;20402;-88
2021/12/03 04:33:33;;;;;;;14.65;10.93;;;1.40;99.90;;;;;;4988069;28;20050;-89
2021/12/03 04:35:59;;;;;;;16.20;10.75;;;1.40;99.90;;;;;;4988097;28;20046;-86
2021/12/03 04:38:24;;;;;;;15.35;12.02;;;1.50;99.90;;;;;;4991763;28;20057;-91
2021/12/03 04:40:50;;;;;;;17.73;11.20;;;1.40;99.90;;;;;;4992174;28;20653;-91
2021/12/03 04:43:16;;;;;;;16.02;11.65;;;1.40;99.90;;;;;;4980901;28;20042;-90
2021/12/03 04:45:42;;;;;;;19.27;12.05;;;1.40;99.90;;;;;;4987181;28;20072;-84
2021/12/03 04:48:08;;;;;;;17.10;10.90;;;1.40;99.90;;;;;;4978206;28;20057;-86
2021/12/03 04:50:40;;;;;;;15.65;10.95;;;1.40;99.90;;;;;;5002107;28;20042;-93
2021/12/03 04:53:08;;;;;;;13.30;10.73;;;1.40;99.90;;;;;;4958342;28;20510;-92
2021/12/03 04:55:35;;;;;;;11.77;10.25;;;2.20;99.90;;;;;;4997789;28;20050;-92
2021/12/03 04:58:00;;;;;;;13.00;10.27;;;1.40;99.90;;;;;;4987151;28;20042;-93
2021/12/03 05:00:31;;;;;;;13.63;11.05;;;1.50;99.90;;;;;;4989443;28;20050;-93
2021/12/03 05:02:57;;;;;;;14.05;10.20;;;1.40;99.90;;;;;;4991592;28;20081;-93
2021/12/03 05:05:25;;;;;;;14.57;10.68;;;1.40;99.90;;;;;;4981948;28;20042;-92
2021/12/03 05:07:58;;;;;;;13.48;9.52;;;1.30;99.90;;;;;;4990845;28;20042;-88
2021/12/03 05:10:26;;;;;;;12.32;9.85;;;1.50;99.90;;;;;;4988863;28;20065;-93
2021/12/03 05:13:05;;;;;;;13.75;10.23;;;2.10;99.90;;;;;;4987384;28;20040;-92
2021/12/03 05:15:32;;;;;;;12.07;10.63;;;1.50;99.90;;;;;;4971563;28;20495;-92
2021/12/03 05:18:00;;;;;;;13.32;10.85;;;1.30;99.90;;;;;;4987255;28;20513;-90
2021/12/03 05:20:26;;;;;;;12.48;9.95;;;1.40;99.90;;;;;;4991517;28;20050;-90
2021/12/03 05:22:53;;;;;;;16.67;10.32;;;3.40;99.90;;;;;;4981974;28;20042;-91
2021/12/03 05:25:19;;;;;;;16.02;9.60;;;1.40;99.90;;;;;;4988518;28;20039;-93
2021/12/03 05:27:45;;;;;;;12.23;10.00;;;1.50;99.90;;;;;;4987906;28;20042;-93
2021/12/03 05:30:12;;;;;;;12.32;9.55;;;1.60;99.90;;;;;;4984026;28;20026;-88
2021/12/03 05:32:38;;;;;;;15.25;10.55;;;1.50;99.90;;;;;;4987606;28;20046;-92
2021/12/03 05:35:05;;;;;;;12.90;9.98;;;2.90;99.90;;;;;;4992609;28;20389;-79
2021/12/03 05:37:31;;;;;;;13.68;8.88;;;1.50;99.90;;;;;;4994857;28;20213;-82
2021/12/03 05:39:56;;;;;;;14.85;9.10;;;2.10;99.90;;;;;;4991922;28;20506;-90
2021/12/03 05:42:22;;;;;;;11.50;9.43;;;1.40;99.90;;;;;;4989842;28;20065;-92
2021/12/03 05:44:47;;;;;;;17.33;10.27;;;1.30;99.90;;;;;;4992547;28;20046;-92
2021/12/03 05:47:13;;;;;;;21.38;10.38;;;1.40;99.90;;;;;;4992460;28;20507;-93
2021/12/03 05:49:39;;;;;;;13.75;9.95;;;1.20;99.90;;;;;;4982164;28;20045;-89
2021/12/03 05:52:05;;;;;;;12.40;9.90;;;1.40;99.90;;;;;;4983984;28;20074;-88
2021/12/03 05:54:31;;;;;;;13.32;10.82;;;1.40;99.90;;;;;;4991555;28;20145;-88
2021/12/03 05:56:56;;;;;;;13.23;11.00;;;1.40;99.90;;;;;;4994344;28;20121;-88
2021/12/03 05:59:22;;;;;;;13.43;10.02;;;2.80;99.90;;;;;;4989730;28;20495;-85
2021/12/03 06:01:49;;;;;;;18.52;10.60;;;1.40;99.90;;;;;;4987968;28;20049;-85
2021/12/03 06:04:14;;;;;;;13.95;10.40;;;1.40;99.90;;;;;;4989551;28;20042;-92
2021/12/03 06:06:40;;;;;;;10.90;9.27;;;2.70;99.90;;;;;;4992605;28;20053;-87
2021/12/03 06:09:06;;;;;;;12.40;9.65;;;3.10;99.90;;;;;;4985245;28;20042;-92
2021/12/03 06:11:31;;;;;;;21.73;11.15;;;2.60;99.90;;;;;;4985285;28;20047;-90
2021/12/03 06:13:57;;;;;;;17.23;10.13;;;1.30;99.90;;;;;;4991925;28;20081;-86
2021/12/03 06:16:23;;;;;;;11.25;9.52;;;1.10;99.90;;;;;;4988022;28;20049;-80
2021/12/03 06:18:49;;;;;;;19.92;10.40;;;1.50;99.90;;;;;;4995153;28;20407;-81
2021/12/03 06:21:15;;;;;;;15.40;9.88;;;1.50;99.90;;;;;;4982309;28;20435;-90
2021/12/03 06:23:44;;;;;;;11.15;8.60;;;1.40;99.90;;;;;;4986583;28;20463;-92
2021/12/03 06:26:10;;;;;;;16.15;9.32;;;1.50;99.90;;;;;;4986877;28;20042;-88
2021/12/03 06:28:38;;;;;;;16.60;9.75;;;1.50;99.90;;;;;;4983946;28;20046;-91
2021/12/03 06:31:04;;;;;;;14.93;9.80;;;1.60;99.90;;;;;;4988608;28;20479;-78
2021/12/03 06:33:30;;;;;;;15.43;8.18;;;1.50;99.90;;;;;;4985227;28;20490;-88
2021/12/03 06:35:56;;;;;;;13.85;8.90;;;1.70;99.90;;;;;;4980386;28;20081;-92
2021/12/03 06:38:22;;;;;;;15.25;8.60;;;1.80;99.90;;;;;;4989255;28;20285;-85
2021/12/03 06:40:49;;;;;;;16.70;9.27;;;1.80;99.90;;;;;;4989570;28;20490;-88
2021/12/03 06:43:15;;;;;;;14.40;8.00;;;1.80;99.90;;;;;;4988517;28;20050;-81
2021/12/03 06:45:41;;;;;;;16.77;8.77;;;2.10;99.90;;;;;;4991514;28;20403;-81
2021/12/03 06:48:07;;;;;;;12.55;7.22;;;1.80;99.90;;;;;;4994991;28;20081;-82
2021/12/03 06:50:33;;;;;;;11.43;7.78;;;2.30;99.90;;;;;;4985152;28;20483;-89
2021/12/03 06:53:06;;;;;;;10.25;7.65;;;1.80;99.90;;;;;;4980507;28;20038;-86
2021/12/03 06:55:38;;;;;;;13.13;7.50;;;1.90;99.90;;;;;;4991162;28;20054;-86
2021/12/03 06:58:04;;;;;;;11.70;7.60;;;1.90;99.90;;;;;;4988251;28;20069;-78
2021/12/03 07:00:29;;;;;;;12.27;6.60;;;2.00;99.90;;;;;;4995201;28;20042;-86
2021/12/03 07:02:55;;;;;;;16.88;7.20;;;2.00;99.90;;;;;;4989608;28;20034;-90
2021/12/03 07:05:21;;;;;;;19.42;7.07;;;2.00;99.90;;;;;;4988275;28;20050;-81
2021/12/03 07:07:47;;;;;;;12.10;6.53;;;2.10;99.90;;;;;;4992094;28;20046;-76
2021/12/03 07:10:13;;;;;;;11.02;7.35;;;2.10;99.90;;;;;;4991132;28;20093;-90
2021/12/03 07:12:39;;;;;;;8.88;5.97;;;2.00;99.90;;;;;;4990798;28;20499;-90
2021/12/03 07:15:05;;;;;;;12.95;5.07;;;2.10;99.90;;;;;;4988697;28;20129;-85
2021/12/03 07:17:33;;;;;;;12.18;5.85;;;2.10;99.90;;;;;;4989280;28;20050;-86
2021/12/03 07:20:00;;;;;;;6.55;4.70;;;2.10;99.90;;;;;;4993749;28;20094;-89
2021/12/03 07:22:27;;;;;;;10.80;5.43;;;2.10;99.90;;;;;;4991942;28;20149;-91
2021/12/03 07:24:52;;;;;;;9.35;4.70;;;2.10;99.90;;;;;;4989577;28;20046;-85
2021/12/03 07:27:20;;;;;;;8.77;4.95;;;2.10;99.90;;;;;;4986237;28;20392;-86
2021/12/03 07:29:47;;;;;;;9.48;3.55;;;2.10;99.90;;;;;;4990436;28;20046;-83
2021/12/03 07:32:19;;;;;;;11.10;4.47;;;2.10;99.90;;;;;;4983802;28;20113;-89
2021/12/03 07:34:44;;;;;;;10.52;3.42;;;2.10;99.90;;;;;;4988755;28;20569;-88
2021/12/03 07:37:11;;;;;;;4.95;3.03;;;2.20;99.90;;;;;;4990746;28;20118;-93
2021/12/03 07:39:38;;;;;;;9.65;3.97;;;2.20;99.90;;;;;;4992297;28;20045;-89
2021/12/03 07:42:04;;;;;;;9.55;3.50;;;1.10;99.90;;;;;;4990915;28;20090;-90
2021/12/03 07:44:30;;;;;;;5.95;3.00;;;2.20;99.90;;;;;;4988207;28;20065;-82
2021/12/03 07:46:56;;;;;;;267.77;141.70;;;1.90;99.90;;;;;;4986673;28;20495;-92
2021/12/03 07:49:23;;;;;;;10.57;5.97;;;2.20;99.90;;;;;;4992381;28;20396;-90
2021/12/03 07:51:49;;;;;;;9.48;2.85;;;2.20;99.90;;;;;;4293356;28;10000712;-88
2021/12/03 07:54:17;;;;;;;6.32;2.50;;;2.20;99.90;;;;;;4989153;28;20042;-93
2021/12/03 07:56:44;;;;;;;5.63;2.75;;;4.10;99.90;;;;;;4970418;28;20426;-87
2021/12/03 07:59:09;;;;;;;7.57;2.72;;;2.30;99.90;;;;;;4973245;28;20042;-81
2021/12/03 08:01:35;;;;;;;7.82;2.17;;;2.30;99.90;;;;;;4987075;28;20042;-91
2021/12/03 08:04:01;;;;;;;6.82;2.90;;;2.40;99.90;;;;;;4989861;28;20039;-83
2021/12/03 08:06:27;;;;;;;7.53;2.70;;;2.40;99.90;;;;;;4992864;28;20043;-96
2021/12/03 08:08:52;;;;;;;8.40;2.63;;;2.40;99.90;;;;;;4990172;28;20081;-88
2021/12/03 08:11:18;;;;;;;5.85;2.28;;;3.50;99.90;;;;;;4981384;28;21595;-92
2021/12/03 08:13:44;;;;;;;10.18;2.30;;;2.50;99.90;;;;;;4978835;28;20714;-88
2021/12/03 08:16:10;;;;;;;8.40;2.92;;;4.00;99.90;;;;;;4979483;28;20043;-80
2021/12/03 08:18:35;;;;;;;6.40;2.47;;;2.90;99.90;;;;;;4988686;28;20106;-90
2021/12/03 08:21:03;;;;;;;8.90;2.80;;;2.60;99.90;;;;;;4988294;28;20046;-91
2021/12/03 08:23:30;;;;;;;3.05;2.00;;;2.00;99.90;;;;;;4988696;28;20050;-92
2021/12/03 08:25:55;;;;;;;4.35;2.20;;;2.60;99.90;;;;;;4993043;28;20062;-92
2021/12/03 08:28:21;;;;;;;5.32;2.60;;;2.60;99.90;;;;;;4985112;28;20140;-93
2021/12/03 08:30:47;;;;;;;6.90;2.95;;;2.60;99.90;;;;;;4990812;28;20039;-94
2021/12/03 08:33:12;;;;;;;5.22;2.65;;;2.50;99.90;;;;;;4986064;28;20034;-90
2021/12/03 08:35:38;;;;;;;9.88;3.30;;;2.60;99.90;;;;;;4989688;28;20046;-92
2021/12/03 08:38:04;;;;;;;10.63;3.53;;;2.60;99.90;;;;;;4969825;28;20074;-85
2021/12/03 08:40:30;;;;;;;11.25;3.85;;;2.60;99.90;;;;;;4987031;28;20421;-84
2021/12/03 08:42:56;;;;;;;7.28;3.97;;;2.60;99.90;;;;;;4990565;28;20045;-92
2021/12/03 08:45:21;;;;;;;10.95;3.97;;;2.60;99.90;;;;;;4989935;28;20050;-91
2021/12/03 08:47:52;;;;;;;12.13;4.53;;;2.70;99.90;;;;;;4992670;28;20050;-91
2021/12/03 08:50:34;;;;;;;11.85;5.05;;;2.60;99.90;;;;;;4992589;28;20034;-89
2021/12/03 08:55:30;;;;;;;9.93;4.78;;;2.40;99.90;;;;;;4991753;28;20494;-92
2021/12/03 08:57:56;;;;;;;12.48;5.85;;;2.80;99.90;;;;;;4991396;28;20081;-86
2021/12/03 09:00:22;;;;;;;18.23;5.88;;;2.80;99.90;;;;;;4991559;28;20450;-93
2021/12/03 09:02:48;;;;;;;11.57;6.95;;;2.70;99.90;;;;;;4989851;28;20386;-92
2021/12/03 09:05:14;;;;;;;11.27;6.05;;;2.80;99.90;;;;;;4994038;28;20046;-87
2021/12/03 09:07:44;;;;;;;7.63;4.75;;;3.20;99.90;;;;;;4992455;28;20041;-91
2021/12/03 09:10:13;;;;;;;18.92;6.60;;;2.90;99.90;;;;;;4994884;28;20053;-92
2021/12/03 09:12:39;;;;;;;23.70;8.55;;;2.90;99.90;;;;;;4997642;28;20052;-85
2021/12/03 09:15:10;;;;;;;15.95;7.50;;;3.40;99.90;;;;;;4987830;28;20062;-92
2021/12/03 09:17:43;;;;;;;11.38;6.40;;;2.90;99.90;;;;;;4985858;28;20113;-91
2021/12/03 09:20:24;;;;;;;14.73;6.95;;;3.00;99.90;;;;;;4990539;28;20118;-85
2021/12/03 09:22:52;;;;;;;14.23;7.65;;;3.00;99.90;;;;;;4994345;28;20046;-77
2021/12/03 09:25:23;;;;;;;22.17;7.82;;;3.00;99.90;;;;;;4995822;28;20052;-92
2021/12/03 09:27:51;;;;;;;16.60;7.20;;;2.90;99.90;;;;;;4996180;28;20045;-90
2021/12/03 09:30:16;;;;;;;20.92;8.55;;;3.00;99.90;;;;;;4994579;28;20402;-92
2021/12/03 09:32:48;;;;;;;19.23;8.65;;;3.00;99.90;;;;;;4992271;28;20042;-82
2021/12/03 09:35:14;;;;;;;18.50;8.63;;;3.10;99.90;;;;;;4991847;28;20053;-92
2021/12/03 09:37:40;;;;;;;15.57;9.18;;;3.10;99.90;;;;;;4994798;28;20406;-93
2021/12/03 09:40:08;;;;;;;17.58;9.10;;;3.10;99.90;;;;;;4994479;28;20129;-92
2021/12/03 09:42:37;;;;;;;23.38;8.85;;;3.20;99.90;;;;;;4996649;28;20046;-91
2021/12/03 09:45:04;;;;;;;19.38;8.02;;;3.20;99.90;;;;;;4992237;28;20050;-84
2021/12/03 09:47:31;;;;;;;22.45;8.98;;;3.20;99.90;;;;;;4994720;28;20494;-92
2021/12/03 09:49:57;;;;;;;17.95;7.85;;;3.20;99.90;;;;;;4992217;28;20030;-77
2021/12/03 09:55:12;;;;;;;17.80;7.47;;;3.50;99.90;;;;;;4988265;28;20055;-82
2021/12/03 09:57:43;;;;;;;17.77;7.53;;;3.30;99.90;;;;;;4995199;28;20128;-92
2021/12/03 10:03:14;;;;;;;14.82;7.20;;;3.30;99.90;;;;;;4984167;28;20061;-80
2021/12/03 10:11:55;;;;;;;17.88;6.63;;;3.40;99.90;;;;;;4985876;28;20092;-93
2021/12/03 10:14:35;;;;;;;15.02;7.03;;;3.40;99.90;;;;;;4984837;28;20062;-94
2021/12/03 10:25:24;;;;;;;23.08;7.32;;;3.40;99.90;;;;;;4986716;28;20121;-76
2021/12/03 10:28:19;;;;;;;15.43;6.43;;;3.50;99.90;;;;;;4989487;28;20046;-88
2021/12/03 10:31:01;;;;;;;15.38;5.95;;;4.00;99.90;;;;;;4991047;28;20062;-80
2021/12/03 10:33:48;;;;;;;15.40;6.10;;;3.40;99.90;;;;;;4986920;28;20563;-92
2021/12/03 10:45:09;;;;;;;18.35;5.30;;;3.50;99.90;;;;;;4991359;28;20069;-88
2021/12/03 10:52:57;;;;;;;15.88;5.45;;;3.50;99.90;;;;;;4999339;28;20118;-77
2021/12/03 10:58:34;;;;;;;16.30;5.45;;;3.50;99.90;;;;;;4988469;28;20050;-91
2021/12/03 11:11:14;;;;;;;14.90;5.25;;;3.50;99.90;;;;;;4994765;28;20181;-91
2021/12/03 11:39:07;;;;;;;10.70;3.53;;;3.40;99.90;;;;;;4987228;28;20046;-83
2021/12/03 11:51:10;;;;;;;14.05;4.47;;;3.40;99.90;;;;;;4958242;28;20051;-92
2021/12/03 13:56:14;;;;;;;10.35;4.47;;;3.50;99.90;;;;;;4980800;28;20113;-91
2021/12/03 13:56:40;;;;;;;9.63;3.40;;;3.50;99.90;;;;;;4985002;28;20076;-89
2021/12/03 14:00:53;;;;;;;4.88;2.80;;;3.50;99.90;;;;;;4950261;28;20051;-83
2021/12/03 14:38:47;;;;;;;18.23;8.95;;;4.00;99.90;;;;;;4987321;28;20465;-79
2021/12/03 14:41:46;;;;;;;6.97;2.83;;;3.70;99.90;;;;;;4988891;28;20055;-84
2021/12/03 14:44:18;;;;;;;7.88;3.30;;;3.90;99.90;;;;;;4986672;28;20085;-79
2021/12/03 14:47:12;;;;;;;6.00;2.85;;;3.90;99.90;;;;;;4990671;28;20034;-84
2021/12/03 14:53:45;;;;;;;9.13;3.05;;;3.90;99.90;;;;;;4987440;28;20487;-79
2021/12/03 14:55:37;;;;;;;11.65;3.22;;;4.40;99.90;;;;;;4981288;28;20450;-85
2021/12/03 14:58:23;;;;;;;9.75;3.28;;;4.40;99.90;;;;;;4972899;28;20046;-77
2021/12/03 15:00:56;;;;;;;8.90;2.78;;;3.80;99.90;;;;;;4993813;28;20048;-81
2021/12/03 15:03:31;;;;;;;7.18;3.20;;;3.90;99.90;;;;;;4992556;28;20046;-78
2021/12/03 15:19:06;;;;;;;7.07;4.80;;;4.00;99.90;;;;;;4991117;28;20437;-80
2021/12/03 15:24:33;;;;;;;6.13;2.72;;;4.00;99.90;;;;;;4989048;28;20046;-76
2021/12/03 15:32:15;;;;;;;9.48;4.30;;;4.00;99.90;;;;;;4990630;28;20502;-83
2021/12/03 15:34:58;;;;;;;9.57;3.72;;;4.10;99.90;;;;;;4987783;28;20050;-77
2021/12/03 15:37:46;;;;;;;7.55;4.30;;;4.10;99.90;;;;;;4986215;28;20042;-80
2021/12/03 16:04:39;;;;;;;7.13;5.45;;;4.30;99.90;;;;;;4988013;28;20394;-93
2021/12/03 16:07:32;;;;;;;12.57;7.38;;;3.90;99.90;;;;;;4975436;28;20474;-96
2021/12/03 16:15:54;;;;;;;7.55;5.50;;;3.80;99.90;;;;;;4984922;28;20053;-85
2021/12/03 16:18:34;;;;;;;8.88;6.32;;;3.90;99.90;;;;;;4991306;28;20109;-91
2021/12/03 16:23:53;;;;;;;10.90;8.52;;;4.00;99.90;;;;;;4989959;28;20137;-89
2021/12/03 16:51:12;;;;;;;6.82;6.18;;;4.00;99.90;;;;;;4989341;28;20046;-89
2021/12/03 16:53:38;;;;;;;7.70;5.40;;;3.90;99.90;;;;;;4984373;28;20057;-85
2021/12/03 16:59:03;;;;;;;10.43;9.35;;;3.90;99.90;;;;;;4965711;28;20142;-87
2021/12/03 17:47:24;;;;;;;9.68;8.77;;;4.00;99.90;;;;;;4987190;28;20050;-88
2021/12/03 17:49:39;;;;;;;11.60;10.50;;;4.00;99.90;;;;;;4989109;28;20069;-74
2021/12/03 17:52:22;;;;;;;14.32;12.93;;;4.00;99.90;;;;;;4985141;28;20085;-90
2021/12/03 17:57:32;;;;;;;;;;;4.00;99.90;;;;;;4989135;28;20054;-78
2021/12/03 18:00:01;;;;;;;15.95;14.38;;;4.00;99.90;;;;;;4984607;28;19972;-92
2021/12/03 18:02:44;;;;;;;16.17;14.48;;;4.00;99.90;;;;;;4987033;28;20690;-91
2021/12/03 18:08:01;;;;;;;16.40;14.70;;;4.00;99.90;;;;;;4989782;28;20105;-89
2021/12/03 18:49:04;;;;;;;22.05;19.13;;;4.30;99.90;;;;;;4984341;28;20065;-85
2021/12/03 18:56:05;;;;;;;19.40;17.30;;;4.20;99.90;;;;;;4987202;28;20544;-86
2021/12/03 18:58:31;;;;;;;18.58;16.67;;;4.20;99.90;;;;;;4991371;28;20043;-90
2021/12/03 19:00:58;;;;;;;20.65;18.42;;;4.10;99.90;;;;;;4990671;28;20042;-79
2021/12/03 19:03:38;;;;;;;20.70;18.50;;;4.20;99.90;;;;;;4981477;28;20113;-88
2021/12/03 19:08:38;;;;;;;19.38;17.20;;;5.40;99.90;;;;;;4978302;28;20064;-88
2021/12/03 19:11:17;;;;;;;26.30;20.95;;;4.20;99.90;;;;;;4986015;28;20057;-74
2021/12/03 19:13:43;;;;;;;25.10;21.30;;;5.20;99.90;;;;;;4988058;28;20406;-81
2021/12/03 19:16:11;;;;;;;21.92;19.60;;;4.20;99.90;;;;;;4985592;28;20050;-82
2021/12/03 19:18:43;;;;;;;21.35;19.10;;;4.50;99.90;;;;;;4986460;28;20050;-94
2021/12/03 19:21:12;;;;;;;24.30;21.25;;;4.20;99.90;;;;;;4992508;28;20138;-78
2021/12/03 19:23:37;;;;;;;24.40;21.77;;;4.20;99.90;;;;;;4984732;28;20180;-86
2021/12/03 19:26:03;;;;;;;24.38;21.77;;;4.30;99.90;;;;;;4991371;28;20050;-79
2021/12/03 19:28:31;;;;;;;25.13;21.88;;;6.00;99.90;;;;;;4988612;28;20066;-85
2021/12/03 19:30:57;;;;;;;28.13;23.50;;;4.40;99.90;;;;;;4987053;28;20054;-86
2021/12/03 19:33:24;;;;;;;28.23;24.83;;;4.20;99.90;;;;;;4982125;28;20045;-92
2021/12/03 19:35:49;;;;;;;26.98;21.80;;;3.70;99.90;;;;;;4991310;28;20046;-93
2021/12/03 19:38:17;;;;;;;29.08;24.08;;;4.20;99.90;;;;;;4988796;28;20045;-79
2021/12/03 19:40:53;;;;;;;33.38;26.33;;;5.70;99.90;;;;;;4982362;28;20054;-85
2021/12/03 19:43:26;;;;;;;29.27;24.98;;;4.20;99.90;;;;;;4983403;28;20046;-81
2021/12/03 19:46:00;;;;;;;31.30;25.83;;;4.30;99.90;;;;;;4986518;28;20046;-78
2021/12/03 19:48:35;;;;;;;33.22;25.05;;;4.20;99.90;;;;;;4986542;28;20050;-94
2021/12/03 19:51:00;;;;;;;26.27;22.73;;;4.20;99.90;;;;;;4983198;28;20372;-87
2021/12/03 19:53:28;;;;;;;35.38;28.70;;;4.30;99.90;;;;;;4990102;28;20049;-92
2021/12/03 19:55:53;;;;;;;31.77;26.48;;;4.30;99.90;;;;;;4989865;28;20121;-87
2021/12/03 19:58:20;;;;;;;35.08;28.45;;;4.20;99.90;;;;;;4985947;28;20117;-88